createdAt,value
2018-11-02T00:00:40.396Z,78.80
2018-11-02T00:03:09.504Z,78.90
2018-11-02T00:05:38.193Z,78.80
2018-11-02T00:08:07.748Z,78.70
2018-11-02T00:10:36.406Z,78.80
2018-11-02T00:13:06.374Z,78.50
2018-11-02T00:15:35.081Z,79.00
2018-11-02T00:18:04.010Z,78.90
2018-11-02T00:20:32.573Z,78.50
2018-11-02T00:23:01.113Z,78.80
2018-11-02T00:25:29.680Z,78.90
2018-11-02T00:27:58.212Z,79.20
2018-11-02T00:30:26.939Z,79.30
2018-11-02T00:35:23.669Z,79.50
2018-11-02T00:37:52.197Z,80.10
2018-11-02T00:40:20.952Z,80.00
2018-11-02T00:42:49.562Z,79.70
2018-11-02T00:45:18.238Z,79.40
2018-11-02T00:47:46.832Z,79.00
2018-11-02T00:50:15.417Z,79.00
2018-11-02T00:52:43.955Z,78.70
2018-11-02T00:55:12.899Z,79.10
2018-11-02T00:57:41.443Z,79.80
2018-11-02T01:00:12.344Z,79.00
2018-11-02T01:02:40.936Z,79.10
2018-11-02T01:05:10.182Z,79.00
2018-11-02T01:07:39.292Z,79.10
2018-11-02T01:10:20.683Z,79.10
2018-11-02T01:12:49.309Z,79.50
2018-11-02T01:15:17.920Z,79.50
2018-11-02T01:17:46.496Z,79.40
2018-11-02T01:20:15.027Z,79.20
2018-11-02T01:22:43.528Z,79.60
2018-11-02T01:25:12.126Z,79.70
2018-11-02T01:27:40.811Z,79.50
2018-11-02T01:30:09.483Z,79.40
2018-11-02T01:32:38.667Z,79.40
2018-11-02T01:35:07.975Z,79.50
2018-11-02T01:37:36.567Z,79.40
2018-11-02T01:40:05.823Z,79.30
2018-11-02T01:42:34.353Z,79.10
2018-11-02T01:45:02.970Z,79.10
2018-11-02T01:47:31.451Z,79.10
2018-11-02T01:50:00.067Z,79.00
2018-11-02T01:52:28.767Z,79.40
2018-11-02T01:54:57.367Z,79.70
2018-11-02T01:57:25.944Z,79.50
2018-11-02T01:59:54.420Z,79.40
2018-11-02T02:02:23.111Z,79.30
2018-11-02T02:04:51.743Z,79.20
2018-11-02T02:07:20.290Z,79.10
2018-11-02T02:09:49.283Z,78.50
2018-11-02T02:12:17.937Z,77.80
2018-11-02T02:14:46.479Z,77.50
2018-11-02T02:17:15.289Z,77.20
2018-11-02T02:19:43.931Z,76.90
2018-11-02T02:22:12.640Z,76.50
2018-11-02T02:24:41.248Z,76.20
2018-11-02T02:29:44.711Z,75.90
2018-11-02T02:32:13.414Z,76.00
2018-11-02T02:34:42.105Z,76.10
2018-11-02T02:37:11.669Z,75.40
2018-11-02T02:39:40.249Z,75.00
2018-11-02T02:42:08.880Z,74.30
2018-11-02T02:44:37.494Z,74.50
2018-11-02T02:49:34.272Z,74.50
2018-11-02T02:52:02.807Z,74.60
2018-11-02T02:54:32.408Z,74.70
2018-11-02T02:57:01.126Z,74.70
2018-11-02T02:59:29.731Z,74.80
2018-11-02T03:01:58.249Z,74.70
2018-11-02T03:04:27.480Z,73.80
2018-11-02T03:06:56.886Z,72.50
2018-11-02T03:11:53.673Z,72.00
2018-11-02T03:14:22.872Z,71.50
2018-11-02T03:16:51.464Z,71.30
2018-11-02T03:19:20.040Z,71.40
2018-11-02T03:21:48.644Z,70.60
2018-11-02T03:24:17.270Z,71.10
2018-11-02T03:26:46.643Z,70.60
2018-11-02T03:29:15.173Z,70.80
2018-11-02T03:31:44.863Z,70.50
2018-11-02T03:34:13.636Z,70.30
2018-11-02T03:36:42.168Z,70.20
2018-11-02T03:39:11.975Z,70.80
2018-11-02T03:41:40.666Z,70.10
2018-11-02T03:44:09.901Z,70.00
2018-11-02T03:46:38.748Z,70.10
2018-11-02T03:49:08.366Z,70.30
2018-11-02T03:51:36.932Z,70.70
2018-11-02T03:54:06.098Z,70.80
2018-11-02T03:56:35.364Z,70.50
2018-11-02T03:59:04.112Z,70.30
2018-11-02T04:04:00.823Z,70.40
2018-11-02T04:06:29.540Z,70.50
2018-11-02T04:11:26.320Z,70.70
2018-11-02T04:13:54.848Z,70.50
2018-11-02T04:16:23.408Z,70.70
2018-11-02T04:18:52.040Z,70.50
2018-11-02T04:23:49.202Z,71.00
2018-11-02T04:26:17.784Z,70.90
2018-11-02T04:28:46.331Z,71.20
2018-11-02T04:31:14.847Z,70.90
2018-11-02T04:33:43.603Z,70.60
2018-11-02T04:36:12.099Z,71.50
2018-11-02T04:38:41.093Z,70.90
2018-11-02T04:41:09.634Z,71.10
2018-11-02T04:43:38.171Z,71.20
2018-11-02T04:46:06.630Z,71.50
2018-11-02T04:48:35.133Z,71.70
2018-11-02T04:51:04.737Z,72.00
2018-11-02T04:53:33.281Z,72.70
2018-11-02T04:56:01.797Z,72.60
2018-11-02T04:58:30.356Z,72.70
2018-11-02T05:00:58.943Z,73.10
2018-11-02T05:03:27.584Z,72.50
2018-11-02T05:05:56.114Z,73.00
2018-11-02T05:08:24.713Z,73.10
2018-11-02T05:10:54.310Z,73.00
2018-11-02T05:13:23.273Z,73.00
2018-11-02T05:15:52.952Z,73.00
2018-11-02T05:18:21.637Z,73.50
2018-11-02T05:20:50.288Z,73.30
2018-11-02T05:23:18.886Z,73.30
2018-11-02T05:25:47.431Z,73.90
2018-11-02T05:28:16.250Z,74.00
2018-11-02T05:30:44.768Z,73.90
2018-11-02T05:33:13.724Z,74.20
2018-11-02T05:35:42.277Z,73.90
2018-11-02T05:38:10.990Z,74.60
2018-11-02T05:40:39.533Z,73.60
2018-11-02T05:43:08.210Z,73.20
2018-11-02T05:45:36.745Z,73.40
2018-11-02T05:48:05.526Z,73.40
2018-11-02T05:50:34.113Z,73.10
2018-11-02T05:55:32.824Z,72.20
2018-11-02T05:58:02.598Z,72.50
2018-11-02T06:00:31.221Z,71.90
2018-11-02T06:02:59.798Z,72.30
2018-11-02T06:08:00.101Z,72.00
2018-11-02T06:10:40.037Z,72.40
2018-11-02T06:15:38.854Z,72.60
2018-11-02T06:18:08.023Z,72.20
2018-11-02T06:20:37.757Z,72.40
2018-11-02T06:23:06.685Z,72.20
2018-11-02T06:25:35.225Z,72.20
2018-11-02T06:28:15.339Z,72.30
2018-11-02T06:30:51.978Z,72.50
2018-11-02T06:33:21.396Z,72.30
2018-11-02T06:35:53.465Z,72.40
2018-11-02T06:38:22.621Z,72.40
2018-11-02T06:40:51.529Z,72.50
2018-11-02T06:43:28.751Z,72.80
2018-11-02T06:46:02.491Z,73.10
2018-11-02T06:48:33.408Z,72.80
2018-11-02T06:51:02.451Z,72.80
2018-11-02T06:53:31.631Z,71.80
2018-11-02T06:56:01.191Z,71.60
2018-11-02T06:58:30.720Z,71.80
2018-11-02T07:01:00.825Z,71.70
2018-11-02T07:03:29.575Z,71.60
2018-11-02T07:05:59.266Z,71.20
2018-11-02T07:13:25.369Z,70.50
2018-11-02T07:15:54.132Z,70.30
2018-11-02T07:20:52.017Z,70.40
2018-11-02T07:26:07.292Z,70.80
2018-11-02T07:28:36.145Z,69.70
2018-11-02T07:31:05.171Z,69.70
2018-11-02T07:33:33.934Z,69.60
2018-11-02T07:36:03.784Z,69.50
2018-11-02T07:38:34.385Z,69.60
2018-11-02T07:41:03.403Z,69.20
2018-11-02T07:43:35.134Z,69.90
2018-11-02T07:48:34.048Z,68.70
2018-11-02T07:51:04.202Z,69.00
2018-11-02T07:53:33.119Z,68.40
2018-11-02T07:56:02.701Z,68.40
2018-11-02T07:58:34.004Z,68.40
2018-11-02T08:01:07.787Z,68.00
2018-11-02T08:03:38.233Z,67.90
2018-11-02T08:06:07.838Z,67.50
2018-11-02T08:08:40.839Z,67.50
2018-11-02T08:22:08.964Z,66.50
2018-11-02T08:24:54.484Z,66.40
2018-11-02T08:27:23.266Z,66.00
2018-11-02T08:29:55.080Z,65.70
2018-11-02T08:32:25.875Z,65.40
2018-11-02T08:34:54.461Z,65.10
2018-11-02T08:37:22.985Z,65.00
2018-11-02T08:39:52.245Z,65.00
2018-11-02T08:42:20.770Z,65.10
2018-11-02T08:44:49.287Z,64.90
2018-11-02T08:47:18.094Z,64.90
2018-11-02T08:49:46.708Z,65.10
2018-11-02T08:52:15.295Z,65.40
2018-11-02T08:57:12.113Z,65.50
2018-11-02T08:59:40.627Z,65.50
2018-11-02T09:02:09.355Z,65.40
2018-11-02T09:04:37.924Z,65.40
2018-11-02T09:07:06.581Z,65.40
2018-11-02T09:09:35.124Z,65.70
2018-11-02T09:12:05.444Z,65.60
2018-11-02T09:14:35.860Z,65.90
2018-11-02T09:17:05.154Z,64.70
2018-11-02T09:24:33.418Z,64.60
2018-11-02T09:27:03.652Z,64.60
2018-11-02T09:29:33.831Z,64.70
2018-11-02T09:32:03.095Z,64.60
2018-11-02T09:34:32.431Z,64.50
2018-11-02T09:37:02.332Z,64.10
2018-11-02T09:42:01.582Z,63.90
2018-11-02T09:44:31.973Z,63.90
2018-11-02T09:47:00.663Z,63.80
2018-11-02T09:49:32.925Z,63.50
2018-11-02T09:52:06.346Z,63.60
2018-11-02T09:54:35.504Z,63.70
2018-11-02T09:57:04.832Z,64.00
2018-11-02T09:59:34.508Z,63.60
2018-11-02T10:02:04.793Z,63.40
2018-11-02T10:04:33.890Z,63.10
2018-11-02T10:09:32.897Z,62.80
2018-11-02T10:12:02.783Z,63.40
2018-11-02T10:14:33.924Z,63.30
2018-11-02T10:17:04.332Z,63.10
2018-11-02T10:19:33.553Z,63.10
2018-11-02T10:22:02.885Z,63.00
2018-11-02T10:24:40.785Z,62.90
2018-11-02T10:38:16.640Z,64.00
2018-11-02T10:46:48.376Z,63.90
2018-11-02T11:06:25.683Z,62.70
2018-11-02T11:08:59.850Z,63.80
2018-11-02T11:37:13.889Z,62.70
2018-11-02T11:40:08.487Z,62.80
2018-11-02T11:46:56.028Z,62.30
2018-11-02T11:49:43.145Z,62.00
2018-11-02T11:52:16.650Z,60.80
2018-11-02T11:55:04.669Z,60.70
2018-11-02T11:57:33.702Z,60.80
2018-11-02T12:04:31.697Z,60.10
2018-11-02T12:48:09.203Z,56.10
2018-11-02T13:00:11.197Z,55.50
2018-11-02T13:02:54.281Z,55.90
2018-11-02T13:05:44.260Z,56.90
2018-11-02T13:11:32.603Z,56.00
2018-11-02T13:14:03.347Z,55.90
2018-11-02T13:16:32.872Z,55.80
2018-11-02T13:19:02.867Z,55.80
2018-11-02T13:21:32.913Z,55.40
2018-11-02T13:24:02.087Z,55.00
2018-11-02T13:29:01.742Z,55.20
2018-11-02T13:31:32.429Z,55.50
2018-11-02T13:34:02.154Z,54.80
2018-11-02T13:39:01.586Z,55.10
2018-11-02T13:41:31.467Z,54.80
2018-11-02T13:44:02.242Z,54.80
2018-11-02T13:46:31.605Z,54.50
2018-11-02T13:49:00.898Z,54.70
2018-11-02T13:51:32.758Z,54.90
2018-11-02T15:18:46.474Z,55.70
2018-11-02T15:21:27.740Z,55.20
2018-11-02T15:36:47.800Z,54.70
2018-11-02T15:55:29.430Z,54.50
2018-11-02T15:58:06.769Z,54.50
2018-11-02T16:00:42.990Z,54.70
2018-11-02T16:03:12.898Z,54.10
2018-11-02T16:09:25.649Z,54.40
2018-11-02T16:15:12.361Z,54.90
2018-11-02T16:17:41.188Z,55.00
2018-11-02T16:20:11.668Z,54.80
2018-11-02T16:22:41.704Z,54.80
2018-11-02T16:34:58.140Z,55.20
2018-11-02T16:40:27.329Z,56.40
2018-11-02T16:45:54.999Z,56.20
2018-11-02T16:48:24.191Z,56.10
2018-11-02T16:53:23.526Z,55.80
2018-11-02T16:55:52.167Z,55.80
2018-11-02T16:58:26.887Z,55.70
2018-11-02T17:00:55.564Z,55.80
2018-11-02T17:03:24.403Z,55.90
2018-11-02T17:05:53.063Z,56.00
2018-11-02T17:08:22.865Z,55.90
2018-11-02T17:10:51.721Z,55.70
2018-11-02T17:13:24.595Z,56.00
2018-11-02T17:15:54.230Z,56.20
2018-11-02T17:18:24.105Z,56.30
2018-11-02T17:20:53.388Z,56.20
2018-11-02T17:23:23.124Z,55.90
2018-11-02T17:25:54.485Z,56.30
2018-11-02T17:28:23.734Z,56.40
2018-11-02T17:30:52.317Z,56.40
2018-11-02T17:33:20.954Z,56.40
2018-11-02T17:35:49.995Z,56.40
2018-11-02T17:38:20.230Z,56.50
2018-11-02T17:40:50.984Z,56.80
2018-11-02T17:43:19.900Z,56.60
2018-11-02T17:46:02.264Z,56.70
2018-11-02T17:48:57.059Z,56.50
2018-11-02T17:51:43.157Z,56.50
2018-11-02T17:56:42.776Z,56.80
2018-11-02T18:46:08.179Z,59.60
2018-11-02T18:48:40.209Z,59.10
2018-11-02T18:51:34.436Z,59.10
2018-11-02T19:06:05.959Z,59.00
2018-11-02T19:08:36.477Z,59.30
2018-11-02T19:11:13.376Z,59.40
2018-11-02T19:14:00.679Z,59.30
2018-11-02T19:16:36.085Z,59.30
2018-11-02T19:19:09.426Z,59.20
2018-11-02T19:27:08.524Z,59.50
2018-11-02T19:29:40.218Z,59.80
2018-11-02T19:32:09.622Z,59.60
2018-11-02T19:34:40.793Z,59.80
2018-11-02T19:42:49.081Z,59.60
2018-11-02T19:45:23.951Z,59.60
2018-11-02T19:48:14.115Z,59.60
2018-11-02T19:53:28.452Z,59.80
2018-11-02T19:56:17.662Z,59.90
2018-11-02T19:59:27.925Z,59.80
2018-11-02T20:02:09.275Z,59.80
2018-11-02T20:13:59.527Z,60.00
2018-11-02T20:32:07.573Z,60.10
2018-11-02T20:37:29.622Z,60.10
2018-11-02T20:40:44.722Z,60.00
2018-11-02T20:43:24.970Z,60.00
2018-11-02T21:26:43.681Z,64.00
2018-11-02T21:29:17.689Z,64.20
2018-11-02T21:31:49.181Z,64.30
2018-11-02T21:34:19.353Z,64.50
2018-11-02T21:36:54.777Z,64.60
2018-11-02T21:39:33.261Z,64.70
2018-11-02T21:42:02.529Z,64.80
2018-11-02T21:44:35.800Z,64.80
2018-11-02T21:47:04.915Z,64.90
2018-11-02T21:49:34.041Z,64.80
2018-11-02T21:52:06.408Z,65.10
2018-11-02T21:54:35.590Z,65.20
2018-11-02T21:57:04.494Z,65.40
2018-11-02T21:59:34.639Z,65.20
2018-11-02T22:04:33.423Z,65.60
2018-11-02T22:07:03.354Z,65.00
2018-11-02T22:09:32.129Z,65.50
2018-11-02T22:14:35.742Z,65.70
2018-11-02T22:17:06.432Z,65.90
2018-11-02T22:19:35.841Z,65.80
2018-11-02T22:22:06.994Z,65.90
2018-11-02T22:24:36.596Z,66.00
2018-11-02T22:27:06.297Z,65.80
2018-11-02T22:29:35.224Z,66.00
2018-11-02T22:32:05.920Z,66.20
2018-11-02T22:34:37.437Z,66.40
2018-11-02T22:37:08.367Z,66.60
2018-11-02T22:42:07.848Z,67.00
2018-11-02T22:44:37.058Z,67.30
2018-11-02T22:47:06.169Z,67.40
2018-11-02T22:49:35.307Z,67.40
2018-11-02T22:52:04.661Z,66.90
2018-11-02T22:54:35.487Z,67.60
2018-11-02T22:57:04.310Z,67.80
2018-11-02T22:59:33.596Z,67.80
2018-11-02T23:09:27.689Z,69.60
2018-11-02T23:11:56.621Z,68.80
2018-11-02T23:14:26.637Z,68.80
2018-11-02T23:16:55.365Z,68.70
2018-11-02T23:19:24.595Z,69.00
2018-11-02T23:21:54.715Z,69.30
2018-11-02T23:24:23.504Z,69.20
2018-11-02T23:26:53.414Z,69.40
2018-11-02T23:29:22.469Z,69.40
2018-11-02T23:31:54.096Z,70.00
2018-11-02T23:36:53.737Z,70.10
2018-11-02T23:39:22.518Z,70.30
2018-11-02T23:41:51.327Z,70.90
2018-11-02T23:44:19.934Z,71.50
2018-11-02T23:46:48.597Z,71.20
2018-11-02T23:49:17.836Z,71.50
2018-11-02T23:51:46.549Z,71.60
2018-11-02T23:56:43.682Z,71.40
2018-11-02T23:59:13.859Z,71.50
